Flight Track Log - Related Links

Times and Time Zones

All times are in EDT time to prevent confusion due to time zone crossing. See the SKW6446 flight status page for this flight to view local times or setup timezone preferences in your user account.

Time Position Orientation Groundspeed Altitude Reporting Facility
EDT Latitude Longitude Course Direction KTS MPH feet Rate Location/Type
Wed 08:05:00 PM 34.2615 -119.3229 301° West  Level FlightAware Approximate
Wed 08:06:00 PM 34.2908 -119.3815 301° West  Level FlightAware Approximate
Wed 08:07:00 PM 34.3201 -119.4401 301° West  Level FlightAware Approximate
Wed 08:08:00 PM 34.3494 -119.4987 301° West  Level FlightAware Approximate
Wed 08:09:00 PM 34.3848 -119.5521 309° West  Level FlightAware Approximate
Wed 08:10:00 PM 34.4237 -119.6105 309° West  Level FlightAware Approximate
Wed 08:11:00 PM 34.4533 -119.6732 301° West  Level FlightAware Approximate
Wed 08:12:00 PM 34.4854 -119.7374 301° West  Level FlightAware Approximate
Wed 08:13:00 PM 34.5175 -119.8016 301° West  Level FlightAware Approximate
Wed 08:14:00 PM 34.5496 -119.8658 301° West  Level FlightAware Approximate
Wed 08:15:00 PM 34.5817 -119.9301 301° West  Level FlightAware Approximate
Wed 08:16:00 PM 34.6138 -119.9943 301° West  Level FlightAware Approximate
Wed 08:17:00 PM 34.6460 -120.0586 301° West  Level FlightAware Approximate
Wed 08:18:00 PM 34.6782 -120.1229 301° West  Level FlightAware Approximate
Wed 08:19:00 PM 34.7103 -120.1872 301° West  Level FlightAware Approximate
Wed 08:20:00 PM 34.7333 -120.2547 270° West  Level FlightAware Approximate
Wed 08:21:00 PM 34.7723 -120.3001 309° West  Level FlightAware Approximate
Wed 08:22:00 PM 34.8133 -120.3566 312° West  Level FlightAware Approximate
Wed 08:23:00 PM 34.8550 -120.4123 312° West  Level FlightAware Approximate
Wed 08:24:00 PM 34.8833 -120.4500 312° West  Level FlightAware Approximate
Wed 08:25:00 PM 34.8999 -120.4581 312° West  Level Estimated
Wed 08:26:00 PM 34.8999 -120.4581 312° West  Level Estimated
Wed 08:27:00 PM 34.8999 -120.4581 312° West  Level Estimated
Wed 08:28:00 PM 34.8999 -120.4581 312° West  Level Estimated
Wed 08:29:00 PM 34.8999 -120.4581 312° West  Level Estimated
Wed 08:30:00 PM 34.8999 -120.4581 312° West  Level Estimated
Wed 08:31:00 PM 34.8999 -120.4581 312° West  Level Estimated
Wed 08:32:00 PM 34.8999 -120.4581 312° West  Level Estimated
Wed 08:33:00 PM 34.8999 -120.4581 312° West  Level Estimated
Wed 08:34:00 PM 34.8999 -120.4581 312° West  Level Estimated
Wed 08:35:00 PM 34.8999 -120.4581 312° West  Level Estimated
Wed 08:36:00 PM 34.8999 -120.4581 312° West  Level Estimated
Wed 08:37:00 PM 34.8999 -120.4581 312° West  Level Estimated
Wed 08:38:00 PM 34.8999 -120.4581 312° West  Level Estimated

Login

Don't have an account? Register now (free) for customized features, flight alerts, and more!